CheckWX is a tool to help pilots better visualize weather data.  It is not intended as a substitute for an official pre-flight weather briefing.

12:20:56 UTC

KROS METAR
Rush City Regional Airport
Rush City, Minnesota, USA
Current

6 mins ago

KROS 181215Z AUTO 35004KT 10SM BKN120 M17/M19 A3035 RMK AO2 T11731190
Observed
Feb-18 @ 12:15 UTC
Wind
  • 350° at 4 KTS
Visibility
10 SM
Flight Rules
VFR
Cloud Levels
  • Broken at 12,000' AGL
Temperature
-17°C / 1°F
Dewpoint
-19°C / -2°F
Humidity
85%
Altimeter
30.35" Hg
Pressure
1027.82 hPa
Previous

26 mins ago

KROS 181155Z AUTO 36004KT 10SM BKN120 M17/M19 A3035 RMK AO2 T11711190 11136 21171
Observed
Feb-18 @ 11:55 UTC
Wind
  • 360° at 4 KTS
Visibility
10 SM
Flight Rules
VFR
Cloud Levels
  • Broken at 12,000' AGL
Temperature
-17°C / 1°F
Dewpoint
-19°C / -2°F
Humidity
85%
Altimeter
30.35" Hg
Pressure
1027.82 hPa
Previous

45 mins ago

KROS 181136Z AUTO 34003KT 10SM BKN120 M16/M18 A3034 RMK AO2 T11651182
Observed
Feb-18 @ 11:36 UTC
Wind
  • 340° at 3 KTS
Visibility
10 SM
Flight Rules
VFR
Cloud Levels
  • Broken at 12,000' AGL
Temperature
-17°C / 1°F
Dewpoint
-18°C / -0°F
Humidity
92%
Altimeter
30.34" Hg
Pressure
1027.42 hPa